createdAt,value
2023-02-11T00:00:15.947Z,101553.00
2023-02-11T00:02:42.592Z,101551.50
2023-02-11T00:05:09.208Z,101540.31
2023-02-11T00:07:36.228Z,101540.00
2023-02-11T00:10:04.290Z,101537.50
2023-02-11T00:12:31.056Z,101533.22
2023-02-11T00:14:57.562Z,101535.63
2023-02-11T00:17:24.086Z,101538.50
2023-02-11T00:19:51.718Z,101531.72
2023-02-11T00:22:18.712Z,101535.41
2023-02-11T00:24:45.589Z,101532.88
2023-02-11T00:27:12.216Z,101524.13
2023-02-11T00:29:39.097Z,101531.81
2023-02-11T00:32:06.249Z,101522.50
2023-02-11T00:34:33.479Z,101520.00
2023-02-11T00:37:00.159Z,101517.31
2023-02-11T00:39:26.787Z,101520.00
2023-02-11T00:41:53.267Z,101510.34
2023-02-11T00:44:19.758Z,101513.03
2023-02-11T00:46:46.315Z,101523.41
2023-02-11T00:49:13.059Z,101518.41
2023-02-11T00:51:39.782Z,101509.72
2023-02-11T00:54:06.474Z,101508.84
2023-02-11T00:56:33.206Z,101502.66
2023-02-11T00:58:59.779Z,101495.78
2023-02-11T01:01:26.874Z,101494.06
2023-02-11T01:03:53.423Z,101488.72
2023-02-11T01:06:19.953Z,101487.72
2023-02-11T01:08:46.554Z,101498.00
2023-02-11T01:11:16.693Z,101485.44
2023-02-11T01:13:43.300Z,101481.78
2023-02-11T01:18:44.510Z,101474.22
2023-02-11T01:21:12.074Z,101469.13
2023-02-11T01:23:38.648Z,101461.69
2023-02-11T01:26:05.636Z,101458.22
2023-02-11T01:28:33.278Z,101450.44
2023-02-11T01:31:01.497Z,101448.81
2023-02-11T01:33:28.772Z,101447.84
2023-02-11T01:35:55.425Z,101447.13
2023-02-11T01:38:25.362Z,101430.06
2023-02-11T01:40:58.436Z,101437.13
2023-02-11T01:43:26.459Z,101418.81
2023-02-11T01:46:02.887Z,101412.81
2023-02-11T01:48:40.729Z,101407.00
2023-02-11T01:51:13.416Z,101403.06
2023-02-11T01:53:59.393Z,101393.81
2023-02-11T01:56:46.253Z,101397.47
2023-02-11T01:59:22.622Z,101405.34
2023-02-11T02:01:57.184Z,101406.59
2023-02-11T02:04:31.571Z,101383.25
2023-02-11T02:07:11.115Z,101382.38
2023-02-11T02:09:45.643Z,101373.16
2023-02-11T02:12:12.190Z,101376.47
2023-02-11T02:14:40.643Z,101373.25
2023-02-11T02:17:20.315Z,101364.56
2023-02-11T02:20:10.787Z,101364.03
2023-02-11T02:22:44.654Z,101354.47
2023-02-11T02:25:32.584Z,101353.56
2023-02-11T02:28:36.919Z,101348.63
2023-02-11T02:31:28.257Z,101346.69
2023-02-11T02:34:06.715Z,101343.19
2023-02-11T02:36:59.246Z,101343.72
2023-02-11T02:39:31.779Z,101340.41
2023-02-11T02:41:58.590Z,101332.72
2023-02-11T02:44:25.536Z,101333.78
2023-02-11T02:46:52.305Z,101325.25
2023-02-11T02:49:18.801Z,101331.34
2023-02-11T02:52:13.380Z,101318.47
2023-02-11T02:55:01.200Z,101312.28
2023-02-11T02:57:36.414Z,101304.59
2023-02-11T03:00:21.408Z,101299.31
2023-02-11T03:02:53.731Z,101302.91
2023-02-11T03:05:32.194Z,101299.16
2023-02-11T03:08:05.588Z,101287.06
2023-02-11T03:10:37.894Z,101279.91
2023-02-11T03:13:06.307Z,101298.34
2023-02-11T03:15:37.681Z,101294.03
2023-02-11T03:18:06.803Z,101281.06
2023-02-11T03:20:37.169Z,101280.19
2023-02-11T03:23:15.134Z,101304.59
2023-02-11T03:25:48.758Z,101305.50
2023-02-11T03:28:30.228Z,101298.78
2023-02-11T03:31:10.612Z,101295.13
2023-02-11T03:34:00.073Z,101303.41
2023-02-11T03:36:46.091Z,101297.44
2023-02-11T03:39:18.004Z,101298.31
2023-02-11T03:41:47.510Z,101307.97
2023-02-11T03:44:16.825Z,101301.25
2023-02-11T03:46:47.762Z,101296.97
2023-02-11T03:49:19.031Z,101302.22
2023-02-11T03:51:47.328Z,101299.63
2023-02-11T03:54:18.741Z,101283.50
2023-02-11T03:56:52.452Z,101292.03
2023-02-11T03:59:19.136Z,101283.69
2023-02-11T04:01:45.753Z,101283.59
2023-02-11T04:04:13.044Z,101281.09
2023-02-11T04:06:39.743Z,101272.25
2023-02-11T04:09:06.861Z,101268.09
2023-02-11T04:11:33.379Z,101263.47
2023-02-11T04:13:59.879Z,101246.75
2023-02-11T04:16:27.034Z,101240.75
2023-02-11T04:18:53.583Z,101242.47
2023-02-11T04:21:20.106Z,101233.50
2023-02-11T04:23:46.598Z,101230.91
2023-02-11T04:26:13.171Z,101226.53
2023-02-11T04:28:39.807Z,101224.69
2023-02-11T04:31:06.408Z,101216.91
2023-02-11T04:33:33.074Z,101214.94
2023-02-11T04:35:59.557Z,101206.16
2023-02-11T04:38:26.245Z,101203.22
2023-02-11T04:40:52.814Z,101207.44
2023-02-11T04:43:19.340Z,101217.91
2023-02-11T04:45:45.924Z,101221.88
2023-02-11T04:48:12.416Z,101215.78
2023-02-11T04:50:38.940Z,101221.69
2023-02-11T04:53:08.164Z,101213.09
2023-02-11T04:55:34.798Z,101216.41
2023-02-11T04:58:01.274Z,101210.09
2023-02-11T05:00:27.784Z,101206.22
2023-02-11T05:02:54.283Z,101194.03
2023-02-11T05:05:20.754Z,101203.53
2023-02-11T05:07:48.421Z,101191.53
2023-02-11T05:10:15.248Z,101191.44
2023-02-11T05:12:41.787Z,101170.94
2023-02-11T05:15:08.401Z,101166.56
2023-02-11T05:17:34.865Z,101164.53
2023-02-11T05:20:01.443Z,101163.81
2023-02-11T05:22:27.958Z,101157.88
2023-02-11T05:24:54.459Z,101162.34
2023-02-11T05:27:20.988Z,101169.50
2023-02-11T05:29:47.475Z,101159.28
2023-02-11T05:32:14.014Z,101156.78
2023-02-11T05:34:40.542Z,101154.44
2023-02-11T05:37:07.082Z,101161.56
2023-02-11T05:39:33.687Z,101162.56
2023-02-11T05:42:00.182Z,101162.00
2023-02-11T05:44:26.776Z,101169.78
2023-02-11T05:46:53.264Z,101166.53
2023-02-11T05:49:19.773Z,101163.13
2023-02-11T05:51:46.420Z,101169.19
2023-02-11T05:54:13.221Z,101170.91
2023-02-11T05:56:39.771Z,101159.88
2023-02-11T05:59:06.386Z,101159.81
2023-02-11T06:01:32.858Z,101156.56
2023-02-11T06:03:59.451Z,101155.59
2023-02-11T06:06:26.309Z,101160.13
2023-02-11T06:08:52.803Z,101155.09
2023-02-11T06:11:20.348Z,101150.88
2023-02-11T06:13:46.914Z,101153.81
2023-02-11T06:16:13.530Z,101148.63
2023-02-11T06:18:40.097Z,101156.72
2023-02-11T06:21:11.181Z,101153.47
2023-02-11T06:23:38.334Z,101153.47
2023-02-11T06:26:06.944Z,101154.13
2023-02-11T06:28:33.924Z,101160.75
2023-02-11T06:31:06.929Z,101150.28
2023-02-11T06:33:35.230Z,101144.44
2023-02-11T06:36:02.126Z,101151.44
2023-02-11T06:38:28.692Z,101145.59
2023-02-11T06:40:55.216Z,101153.47
2023-02-11T06:43:21.922Z,101150.13
2023-02-11T06:45:55.344Z,101150.28
2023-02-11T06:48:23.182Z,101146.03
2023-02-11T06:50:49.695Z,101144.19
2023-02-11T06:53:16.214Z,101148.81
2023-02-11T06:55:42.776Z,101142.22
2023-02-11T06:58:09.296Z,101146.53
2023-02-11T07:00:36.938Z,101148.31
2023-02-11T07:03:03.840Z,101143.28
2023-02-11T07:05:30.392Z,101146.00
2023-02-11T07:07:57.442Z,101141.88
2023-02-11T07:10:23.951Z,101128.88
2023-02-11T07:12:50.475Z,101125.44
2023-02-11T07:15:17.007Z,101116.03
2023-02-11T07:17:43.520Z,101116.91
2023-02-11T07:20:12.489Z,101114.63
2023-02-11T07:22:39.002Z,101121.59
2023-02-11T07:25:05.940Z,101123.44
2023-02-11T07:27:32.552Z,101135.78
2023-02-11T07:29:59.145Z,101123.91
2023-02-11T07:32:25.641Z,101120.50
2023-02-11T07:34:52.171Z,101114.53
2023-02-11T07:37:19.974Z,101118.19
2023-02-11T07:39:46.473Z,101115.88
2023-02-11T07:42:13.068Z,101118.78
2023-02-11T07:44:39.571Z,101120.13
2023-02-11T07:47:06.227Z,101119.66
2023-02-11T07:49:32.813Z,101117.22
2023-02-11T07:51:59.420Z,101110.66
2023-02-11T07:54:25.917Z,101115.03
2023-02-11T07:56:52.466Z,101114.28
2023-02-11T07:59:18.945Z,101117.09
2023-02-11T08:01:45.648Z,101127.81
2023-02-11T08:04:12.178Z,101129.06
2023-02-11T08:06:42.380Z,101138.78
2023-02-11T08:09:14.159Z,101129.38
2023-02-11T08:11:40.672Z,101123.56
2023-02-11T08:14:07.176Z,101116.38
2023-02-11T08:16:36.853Z,101111.25
2023-02-11T08:19:13.698Z,101113.50
2023-02-11T08:21:40.695Z,101113.84
2023-02-11T08:24:07.783Z,101122.13
2023-02-11T08:26:35.398Z,101141.59
2023-02-11T08:29:08.315Z,101132.81
2023-02-11T08:31:38.587Z,101135.06
2023-02-11T08:34:05.866Z,101131.31
2023-02-11T08:36:36.923Z,101123.94
2023-02-11T08:39:18.760Z,101122.47
2023-02-11T08:41:48.920Z,101115.16
2023-02-11T08:44:15.932Z,101099.09
2023-02-11T08:46:42.429Z,101098.00
2023-02-11T08:49:08.986Z,101113.91
2023-02-11T08:51:35.557Z,101099.44
2023-02-11T08:54:02.129Z,101107.69
2023-02-11T08:56:31.522Z,101108.25
2023-02-11T08:58:58.126Z,101100.50
2023-02-11T09:01:27.610Z,101089.28
2023-02-11T09:03:54.310Z,101083.38
2023-02-11T09:06:22.569Z,101086.59
2023-02-11T09:08:53.490Z,101082.50
2023-02-11T09:11:22.440Z,101077.22
2023-02-11T09:13:48.987Z,101067.56
2023-02-11T09:16:21.377Z,101071.94
2023-02-11T09:18:49.013Z,101068.31
2023-02-11T09:21:17.000Z,101066.22
2023-02-11T09:23:44.945Z,101061.00
2023-02-11T09:26:15.505Z,101065.44
2023-02-11T09:28:42.198Z,101056.22
2023-02-11T09:31:11.480Z,101054.00
2023-02-11T09:33:39.526Z,101056.00
2023-02-11T09:36:06.655Z,101048.50
2023-02-11T09:38:33.509Z,101055.59
2023-02-11T09:41:04.103Z,101038.19
2023-02-11T09:43:44.594Z,101033.91
2023-02-11T09:46:16.296Z,101035.81
2023-02-11T09:48:45.455Z,101032.13
2023-02-11T09:51:38.095Z,101026.75
2023-02-11T09:54:13.236Z,101035.63
2023-02-11T09:56:39.887Z,101027.72
2023-02-11T09:59:13.869Z,101040.19
2023-02-11T10:01:48.386Z,101034.72
2023-02-11T10:04:45.890Z,101029.19
2023-02-11T10:07:25.633Z,101036.28
2023-02-11T10:10:35.923Z,101013.22
2023-02-11T10:13:19.904Z,101009.63
2023-02-11T10:16:07.706Z,101019.06
2023-02-11T10:18:52.142Z,101021.00
2023-02-11T10:21:50.763Z,101026.28
2023-02-11T10:24:18.073Z,101008.72
2023-02-11T10:26:45.986Z,101000.19
2023-02-11T10:29:27.154Z,100998.66
2023-02-11T10:31:56.507Z,101002.19
2023-02-11T10:34:24.453Z,101013.69
2023-02-11T10:36:50.966Z,101013.69
2023-02-11T10:39:22.932Z,101003.81
2023-02-11T10:41:57.225Z,101010.47
2023-02-11T10:44:32.181Z,101013.38
2023-02-11T10:47:05.275Z,101005.59
2023-02-11T10:49:38.976Z,101002.06
2023-02-11T10:52:31.833Z,101003.28
2023-02-11T10:55:06.169Z,100995.25
2023-02-11T10:57:32.630Z,100997.81
2023-02-11T11:00:03.763Z,100994.91
2023-02-11T11:02:34.636Z,101013.44
2023-02-11T11:05:14.505Z,101005.44
2023-02-11T11:07:52.562Z,101002.66
2023-02-11T11:11:07.329Z,101018.44
2023-02-11T11:13:36.601Z,101009.97
2023-02-11T11:16:11.997Z,101004.97
2023-02-11T11:18:43.952Z,100994.34
2023-02-11T11:21:24.453Z,100982.19
2023-02-11T11:24:02.420Z,100999.63
2023-02-11T11:26:41.680Z,100995.44
2023-02-11T11:29:13.870Z,101001.97
2023-02-11T11:32:01.831Z,100998.94
2023-02-11T11:37:23.104Z,100983.59
2023-02-11T11:40:01.590Z,100970.78
2023-02-11T11:42:33.260Z,100975.31
2023-02-11T11:45:02.145Z,100989.91
2023-02-11T11:47:56.051Z,101003.06
2023-02-11T11:50:26.522Z,100991.16
2023-02-11T11:53:00.399Z,100987.75
2023-02-11T11:55:36.496Z,100979.63
2023-02-11T11:58:04.412Z,100969.44
2023-02-11T12:00:41.361Z,100984.38
2023-02-11T12:03:27.412Z,100980.91
2023-02-11T12:06:09.732Z,100975.25
2023-02-11T12:08:56.273Z,100957.16
2023-02-11T12:11:28.643Z,100966.34
2023-02-11T12:14:28.948Z,100962.28
2023-02-11T12:17:20.334Z,100958.53
2023-02-11T12:20:05.512Z,100946.66
2023-02-11T12:22:46.225Z,100927.41
2023-02-11T12:25:29.684Z,100936.94
2023-02-11T12:28:27.027Z,100946.34
2023-02-11T12:31:13.330Z,100950.81
2023-02-11T12:34:02.170Z,100946.97
2023-02-11T12:36:37.577Z,100931.56
2023-02-11T12:39:23.869Z,100922.03
2023-02-11T12:42:31.136Z,100928.72
2023-02-11T12:45:09.545Z,100907.59
2023-02-11T12:48:00.806Z,100918.19
2023-02-11T12:50:56.449Z,100914.00
2023-02-11T12:53:53.886Z,100921.78
2023-02-11T12:56:36.023Z,100922.63
2023-02-11T12:59:08.083Z,100918.16
2023-02-11T13:01:39.225Z,100919.13
2023-02-11T13:04:19.936Z,100928.19
2023-02-11T13:06:51.847Z,100937.75
2023-02-11T13:09:24.618Z,100929.78
2023-02-11T13:12:22.287Z,100929.00
2023-02-11T13:14:52.402Z,100911.53
2023-02-11T13:17:50.473Z,100917.63
2023-02-11T13:20:40.569Z,100930.66
2023-02-11T13:23:37.358Z,100930.88
2023-02-11T13:26:39.282Z,100933.44
2023-02-11T13:29:14.917Z,100928.09
2023-02-11T13:31:41.624Z,100932.56
2023-02-11T13:34:43.714Z,100920.06
2023-02-11T13:37:31.131Z,100914.75
2023-02-11T13:40:04.933Z,100902.69
2023-02-11T13:42:34.260Z,100913.09
2023-02-11T13:45:01.377Z,100911.22
2023-02-11T13:47:33.734Z,100907.06
2023-02-11T13:50:02.753Z,100903.69
2023-02-11T13:52:37.469Z,100912.63
2023-02-11T13:55:22.502Z,100912.25
2023-02-11T13:58:07.959Z,100920.88
2023-02-11T14:00:34.399Z,100913.75
2023-02-11T14:03:32.140Z,100913.56
2023-02-11T14:06:29.637Z,100916.25
2023-02-11T14:09:14.193Z,100912.81
2023-02-11T14:11:43.492Z,100918.88
2023-02-11T14:14:24.202Z,100922.28
2023-02-11T14:17:00.130Z,100937.84
2023-02-11T14:19:37.485Z,100935.00
2023-02-11T14:22:06.166Z,100944.50
2023-02-11T14:24:32.594Z,100948.78
2023-02-11T14:27:26.107Z,100952.31
2023-02-11T14:30:43.777Z,100954.69
2023-02-11T14:33:24.176Z,100957.47
2023-02-11T14:36:01.869Z,100973.97
2023-02-11T14:38:37.507Z,100973.91
2023-02-11T14:41:13.567Z,100970.09
2023-02-11T14:43:50.840Z,100972.66
2023-02-11T14:46:18.998Z,100979.19
2023-02-11T14:48:52.173Z,100980.91
2023-02-11T14:51:36.508Z,100979.56
2023-02-11T14:54:15.276Z,100976.72
2023-02-11T14:56:42.438Z,100985.34
2023-02-11T14:59:21.460Z,100993.91
2023-02-11T15:01:54.707Z,100985.22
2023-02-11T15:04:25.978Z,100986.28
2023-02-11T15:06:54.162Z,100981.19
2023-02-11T15:09:28.127Z,100975.13
2023-02-11T15:11:57.872Z,100983.94
2023-02-11T15:14:27.323Z,100983.63
2023-02-11T15:16:57.158Z,100968.88
2023-02-11T15:19:29.703Z,100975.63
2023-02-11T15:21:58.287Z,100973.66
2023-02-11T15:24:28.434Z,100975.22
2023-02-11T15:27:00.462Z,100973.56
2023-02-11T15:29:34.502Z,100987.50
2023-02-11T15:32:13.870Z,100980.50
2023-02-11T15:34:40.705Z,100984.00
2023-02-11T15:37:08.126Z,100980.38
2023-02-11T15:39:43.303Z,100984.00
2023-02-11T15:42:52.187Z,100989.94
2023-02-11T15:45:30.963Z,100991.72
2023-02-11T15:48:12.910Z,100994.38
2023-02-11T15:50:41.384Z,101004.50
2023-02-11T15:54:22.382Z,100998.53
2023-02-11T15:56:51.596Z,100998.38
2023-02-11T15:59:36.045Z,101007.19
2023-02-11T16:02:15.474Z,101003.00
2023-02-11T16:04:51.227Z,101008.22
2023-02-11T16:07:41.995Z,101012.78
2023-02-11T16:10:22.522Z,101013.53
2023-02-11T16:13:12.355Z,100998.81
2023-02-11T16:15:53.849Z,100997.94
2023-02-11T16:18:37.752Z,100998.88
2023-02-11T16:21:06.705Z,101009.47
2023-02-11T16:23:37.771Z,101012.00
2023-02-11T16:26:13.075Z,101013.59
2023-02-11T16:28:40.078Z,101017.28
2023-02-11T16:31:09.759Z,101020.81
2023-02-11T16:33:36.394Z,101025.38
2023-02-11T16:36:11.689Z,101022.59
2023-02-11T16:38:38.368Z,101030.53
2023-02-11T16:41:05.251Z,101025.13
2023-02-11T16:43:32.381Z,101037.66
2023-02-11T16:45:59.076Z,101042.72
2023-02-11T16:48:25.812Z,101042.88
2023-02-11T16:50:53.669Z,101045.78
2023-02-11T16:53:23.473Z,101046.63
2023-02-11T16:55:51.041Z,101051.88
2023-02-11T16:58:17.759Z,101064.66
2023-02-11T17:00:46.529Z,101058.06
2023-02-11T17:03:18.207Z,101070.84
2023-02-11T17:05:55.397Z,101071.88
2023-02-11T17:08:23.628Z,101080.38
2023-02-11T17:10:50.495Z,101077.94
2023-02-11T17:13:17.238Z,101085.13
2023-02-11T17:15:43.884Z,101088.53
2023-02-11T17:18:14.508Z,101089.38
2023-02-11T17:20:41.695Z,101100.78
2023-02-11T17:23:08.523Z,101103.47
2023-02-11T17:25:37.344Z,101110.13
2023-02-11T17:28:08.513Z,101107.41
2023-02-11T17:30:35.877Z,101113.06
2023-02-11T17:33:02.655Z,101111.31
2023-02-11T17:35:29.383Z,101114.63
2023-02-11T17:37:56.113Z,101122.66
2023-02-11T17:40:22.644Z,101121.53
2023-02-11T17:42:50.262Z,101120.50
2023-02-11T17:45:16.930Z,101124.78
2023-02-11T17:47:43.504Z,101124.84
2023-02-11T17:50:10.462Z,101124.09
2023-02-11T17:52:37.885Z,101130.78
2023-02-11T17:55:05.723Z,101132.63
2023-02-11T17:57:32.610Z,101133.34
2023-02-11T17:59:59.109Z,101138.66
2023-02-11T18:02:25.759Z,101137.13
2023-02-11T18:04:53.444Z,101139.81
2023-02-11T18:07:20.527Z,101137.84
2023-02-11T18:09:47.056Z,101134.59
2023-02-11T18:12:13.627Z,101127.56
2023-02-11T18:14:41.141Z,101129.31
2023-02-11T18:17:07.878Z,101134.47
2023-02-11T18:19:36.734Z,101129.31
2023-02-11T18:22:04.444Z,101127.56
2023-02-11T18:24:31.322Z,101126.03
2023-02-11T18:26:58.296Z,101138.38
2023-02-11T18:29:25.291Z,101128.22
2023-02-11T18:31:54.994Z,101142.22
2023-02-11T18:34:21.580Z,101137.91
2023-02-11T18:36:48.914Z,101127.69
2023-02-11T18:39:16.154Z,101129.50
2023-02-11T18:41:43.660Z,101132.78
2023-02-11T18:44:12.097Z,101129.44
2023-02-11T18:46:38.569Z,101140.81
2023-02-11T18:49:05.064Z,101147.78
2023-02-11T18:51:32.718Z,101150.31
2023-02-11T18:54:01.420Z,101154.03
2023-02-11T18:56:28.146Z,101160.03
2023-02-11T18:58:56.583Z,101158.13
2023-02-11T19:01:26.204Z,101161.69
2023-02-11T19:03:54.863Z,101163.47
2023-02-11T19:06:25.428Z,101170.53
2023-02-11T19:08:59.205Z,101172.31
2023-02-11T19:11:45.133Z,101181.06
2023-02-11T19:14:12.986Z,101184.34
2023-02-11T19:16:41.354Z,101180.44
2023-02-11T19:19:08.543Z,101180.09
2023-02-11T19:21:35.822Z,101183.53
2023-02-11T19:24:07.760Z,101185.44
2023-02-11T19:26:34.722Z,101198.66
2023-02-11T19:29:02.035Z,101189.94
2023-02-11T19:31:28.757Z,101190.13
2023-02-11T19:33:55.912Z,101186.94
2023-02-11T19:36:22.411Z,101199.59
2023-02-11T19:38:49.118Z,101192.28
2023-02-11T19:41:23.355Z,101195.81
2023-02-11T19:43:52.923Z,101190.78
2023-02-11T19:46:21.448Z,101195.75
2023-02-11T19:48:49.482Z,101209.88
2023-02-11T19:51:17.412Z,101202.94
2023-02-11T19:53:45.302Z,101204.63
2023-02-11T19:56:13.607Z,101207.97
2023-02-11T19:58:40.976Z,101208.34
2023-02-11T20:01:16.786Z,101210.00
2023-02-11T20:03:43.618Z,101216.25
2023-02-11T20:06:14.118Z,101220.63
2023-02-11T20:08:41.431Z,101225.66
2023-02-11T20:11:12.864Z,101216.91
2023-02-11T20:13:39.442Z,101220.75
2023-02-11T20:16:08.843Z,101224.53
2023-02-11T20:18:37.136Z,101225.47
2023-02-11T20:21:18.985Z,101235.19
2023-02-11T20:23:46.676Z,101236.16
2023-02-11T20:26:15.940Z,101241.31
2023-02-11T20:28:42.873Z,101239.34
2023-02-11T20:31:13.342Z,101240.47
2023-02-11T20:33:42.057Z,101245.84
2023-02-11T20:36:16.463Z,101247.19
2023-02-11T20:38:43.800Z,101252.03
2023-02-11T20:41:25.595Z,101255.84
2023-02-11T20:43:54.850Z,101260.63
2023-02-11T20:46:24.777Z,101258.03
2023-02-11T20:48:52.177Z,101262.28
2023-02-11T20:51:25.354Z,101259.72
2023-02-11T20:53:52.443Z,101263.97
2023-02-11T20:56:24.892Z,101263.88
2023-02-11T20:58:53.511Z,101269.34
2023-02-11T21:01:23.199Z,101265.00
2023-02-11T21:03:51.300Z,101269.41
2023-02-11T21:06:19.531Z,101288.44
2023-02-11T21:08:46.089Z,101280.69
2023-02-11T21:11:12.999Z,101288.88
2023-02-11T21:13:41.231Z,101297.88
2023-02-11T21:16:08.874Z,101307.41
2023-02-11T21:18:35.570Z,101299.38
2023-02-11T21:21:02.057Z,101303.59
2023-02-11T21:23:29.226Z,101307.84
2023-02-11T21:25:57.277Z,101314.22
2023-02-11T21:28:28.347Z,101318.56
2023-02-11T21:30:56.813Z,101316.88
2023-02-11T21:33:25.068Z,101315.06
2023-02-11T21:35:56.394Z,101314.28
2023-02-11T21:38:23.192Z,101316.97
2023-02-11T21:40:49.729Z,101322.13
2023-02-11T21:43:16.394Z,101328.19
2023-02-11T21:45:45.002Z,101333.81
2023-02-11T21:48:12.503Z,101340.16
2023-02-11T21:50:41.062Z,101337.34
2023-02-11T21:53:08.594Z,101331.91
2023-02-11T21:55:36.030Z,101326.00
2023-02-11T21:58:03.124Z,101329.56
2023-02-11T22:00:30.023Z,101336.34
2023-02-11T22:02:56.614Z,101351.16
2023-02-11T22:05:23.259Z,101354.09
2023-02-11T22:07:49.909Z,101368.56
2023-02-11T22:10:17.178Z,101368.81
2023-02-11T22:12:43.767Z,101365.09
2023-02-11T22:15:10.734Z,101368.88
2023-02-11T22:17:37.472Z,101372.44
2023-02-11T22:20:05.472Z,101380.19
2023-02-11T22:22:31.969Z,101388.09
2023-02-11T22:25:00.195Z,101390.84
2023-02-11T22:27:26.813Z,101399.38
2023-02-11T22:29:53.386Z,101402.91
2023-02-11T22:32:19.850Z,101407.44
2023-02-11T22:34:46.383Z,101395.81
2023-02-11T22:37:12.901Z,101405.38
2023-02-11T22:39:39.493Z,101402.78
2023-02-11T22:42:05.998Z,101413.44
2023-02-11T22:44:32.583Z,101411.38
2023-02-11T22:46:59.109Z,101415.50
2023-02-11T22:49:25.651Z,101410.47
2023-02-11T22:51:52.184Z,101415.91
2023-02-11T22:54:19.241Z,101419.28
2023-02-11T22:56:49.531Z,101418.25
2023-02-11T22:59:16.140Z,101410.75
2023-02-11T23:01:43.389Z,101423.19
2023-02-11T23:04:13.892Z,101422.69
2023-02-11T23:06:40.528Z,101421.94
2023-02-11T23:09:09.447Z,101426.34
2023-02-11T23:11:36.195Z,101424.81
2023-02-11T23:14:02.863Z,101415.06
2023-02-11T23:16:34.145Z,101425.00
2023-02-11T23:19:06.517Z,101429.84
2023-02-11T23:21:35.187Z,101428.75
2023-02-11T23:24:13.455Z,101437.38
2023-02-11T23:26:41.216Z,101429.66
2023-02-11T23:29:08.253Z,101427.56
2023-02-11T23:31:38.102Z,101433.69
2023-02-11T23:34:05.194Z,101442.25
2023-02-11T23:36:31.915Z,101439.22
2023-02-11T23:38:58.628Z,101445.56
2023-02-11T23:41:25.283Z,101438.50
2023-02-11T23:43:53.348Z,101457.56
2023-02-11T23:46:22.109Z,101450.00
2023-02-11T23:48:49.838Z,101453.41
2023-02-11T23:51:16.729Z,101454.19
2023-02-11T23:53:44.906Z,101455.25
2023-02-11T23:56:15.755Z,101461.38
2023-02-11T23:58:42.425Z,101462.34
